Pagrindinis puslapis
METAR-TAF:

METAR-TAF

Oro uostai :

Upsala, Švedija

platuma: 59-53N, ilguma: 017-36E, Aukštis: 21 m

Dabartinis oras

Ataskaita buvo paskelbta 44 minutes, ne 16:20 UTC
Vėjas 9 kt iš Vakarų/Šiaurės Vakarų
Temperatūra 1°C
Drėgmė 100%
Slėgis 987 hPa
Matomumas 10 km arba daugiau

METAR: ESCM 071620Z AUTO 29009KT 9999 FEW064/// 01/01 Q0987

Laikas: 18:04 (17:04 UTC)


TAF: trūkstamas

Orai ataskaitas ir orų prognozės (METAR, TAF).

turimą stotys yra geltonos ir raudonos taškus žemėlapyje.

Perkelti pele per norėdami pamatyti stoties vardą.

Tada spustelėkite, norėdami matyti oro stebėjimo ir prognozės.

Norėdami pakeisti žemėlapį: spustelėkite ant žalios mygtukų su juodo kryžiaus žemyn,; žalią mygtuką su brūkšneliu, jei norite nutolinti; arba žalių rodyklių gretimoms žemėlapius.


METAR-TAF: